Axtell, UT

3:29 AM MDT on August 21, 2014 (GMT -0600)
Carbon County | Change Station
CLOSE
Current Station
Airport
Location: Price,
Elevation: 5955 ft
Nearby Weather Stations

Elev 5955 ft 39.61 °N, 110.75 °W | Updated 36 minutes ago

Clear
Clear
56 °F
Feels Like 56 °F
N
6
Wind Variable Wind from NE

Today
High -- | Low -- °F
--% Chance of Precip.
Yesterday
High -- | Low -- °F
Precip. -- in
6:45 AM 8:13 PM
Waning Crescent, 15% visible
Pressure 29.97 in
Visibility 10.0 miles
Clouds Clear
Dew Point 49 °F
Humidity 77%
Rainfall 0.00 in
Snow Depth 0 in
UV 0 out of 12
Pollen 6.10 out of 12
Air Quality Not available.
Flu Activity Not available.
METAR KPUC 210853Z AUTO 05005KT 10SM CLR 13/09 A3014 RMK AO2 SLP149 T01330094 51004

More Conditions Fewer Conditions

Pressure 29.97 in
Visibility 10.0 miles
Clouds Clear
Dew Point 49 °F
Humidity 77%
Rainfall 0.00 in
Snow Depth 0 in
UV 0 out of 12
Pollen 6.10 out of 12
Air Quality Not available.
Flu Activity Not available.
METAR KPUC 210853Z AUTO 05005KT 10SM CLR 13/09 A3014 RMK AO2 SLP149 T01330094 51004

More Conditions Fewer Conditions

10-Day Weather Forecast

Almanac

Astronomy

Aug. 21, 2014 Rise Set
Actual Time 6:45 AM MDT 8:13 PM MDT
Civil Twilight 6:17 AM MDT 8:41 PM MDT
Nautical Twilight 5:43 AM MDT 9:15 PM MDT
Astronomical Twilight 5:08 AM MDT 9:51 PM MDT
Moon 3:20 AM MDT 5:44 PM MDT
Length of Visible Light 14h 24m
Length of Day
13h 27m
Tomorrow will be 2m 21s shorter.
Waning Crescent, 15% of the Moon is Illuminated
Today
Waning Crescent
Aug 25
New
Sep 2
First Quarter
Sep 8
Full
Sep 15
Last Quarter

Today's Extremes

State Highs State Lows

Community

WunderPhotos

Upload Photos

1,745,867 photos uploaded!

Nearby

Snow Depth

Station Depth Elevation
Buck Flat 0 in 9800 ft
Gooseberry R.S. 0 in 7920 ft
Seeley Creek 0 in 10000 ft
Farnsworth Lake 0 in 9600 ft
Black Flat-U.M. Creek 0 in 9400 ft

Earthquake Activity

City Distance Mag. Time & Date
No recent earthquake activity has been reported nearby.
Minimum magnitude displayed is 2.5.

Coastal Water Temperatures

Place Temperature
No Stations Reporting

Nearby Weather Stations